Air Sicilia Virtual Airways - Route

Air Sicilia Virtual Airways - SIC297L

( CV ) GVAC
Amílcar Cabral International Airport
ESPARGOS ( SID )
plane_to ( CI ) DIBK
Bouaké Airport
( BYK )
Business Exec World Tour 2018 - LEG: 21

AIRPORT NEAR NAVIGATION AIDS

Type Name Frequency
VOR-DME Sal 115300 KHZ
NDB Sal 274 KHZ

METAR / TAF
GVAC 201800Z 05011KT 9999 SCT014 SCT200 26/17 Q1014 NOSIG
GVAC 201700Z 2018/2124 04010KT 9999 SCT014= LFLX 201700Z 2018/2124 30005KT 9999 SCT030 TEMPO 2018/2020 4000 -SHRA SCT030CB BKN040 BECMG 2021/2024 VRB03KT 3000 BR SCT005 SCT040 TEMPO 2100/2107 0400 FG BKN002 BECMG 2108/2111 34003KT 9999 SCT025 TEMPO 2112/2118 4000 SHRA SCT030CB BKN035 BECMG 2118/2121 VRB03KT CAVOK

RUNWAY INFORMATION

Runway Runway length Runway width Runway elevation Runway displaced threshold Runway heading
01 10735 148 176 885 357.9
19 10735 148 170 0 177.9
07 4921 148 177 0 57.7
25 4921 148 177 0 237.7

AIRPORT FREQUENCIES

Type Name Frequency
A/G A/G 345.2 MHZ
APP SAL APP 119.7 MHZ
TWR TWR 119.7 MHZ

AIRPORT NEAR NAVIGATION AIDS

Type Name Frequency
NDB Bouake 258 KHZ
VOR-DME Bouake 115100 KHZ
NDB Bouake 283 KHZ

METAR / TAF
DIBK 201600Z 22006KT 9999 BKN016 33/23 Q1011 NOSIG
DIBK 201750Z 2018/2118 21010KT 8000 TS BKN015 FEW022CB PROB30 TEMPO 2020/2023 4500 TSRA BKN012 FEW022CB BECMG 2023/2024 VRB03KT NSW SCT011 PROB30 TEMPO 2105/2107 4000 BR BKN010 TEMPO 2108/2112 BKN012 BECMG 2111/2112 24010KT

RUNWAY INFORMATION

Runway Runway length Runway width Runway elevation Runway displaced threshold Runway heading
03 10827 148 1226 0 24
21 10827 148 1199 0 204

AIRPORT FREQUENCIES

Type Name Frequency
A/G A/G VOICE 667.3 MHZ
APP APP 120 MHZ
GND GND 121.7 MHZ
TWR TWR 118.9 MHZ

Flightplan

POLMO R976 LUMPO UR976 YF UR979 POKSO

Air Sicilia Virtual Airways Fleets

AVAILABLE AIRCRAFTS for route at this time in Amílcar Cabral International Airport
C550 - Cessna 550 Citation II
( US ) Cessna

Aircraft in fleet: 1

CL30 - BD-100 Challenger 300
( CA ) Bombardier

Aircraft in fleet: 1

LJ35 - Bombardier Learjet 35A
( CA ) Bombardier

Aircraft in fleet: 1

1180 NM

Distance in nautical miles.

€ 310,00

Ticket price for this flight.

Nr. 21

Leg



12-11-2018
Aerosoft Airport Rio de Janeiro International V2.0 XP

L'Aeroporto Internazionale di Rio de Janeiro-Galeão (IATA: GIG, ICAO: SBGL), costruito nel 1952 nel quartiere di Ilha do Governador ed intitolato al musicista Antônio Carlos Jobim, è il principale aeroporto internazio ....


15-10-2018
Aerosoft A320 Family professional

La gamma di aeromobili A320 è una delle più comuni nei cieli. Questi aerei di linea a doppio-getto a corto e medio raggio si sono dimostrati convenienti, affidabili e prontamente disponibili, rendendoli le opzioni migl ....


10-10-2018
Motore critico ( Critical Engine )

Il motore critico di un velivolo ad ala fissa multi-motore è il motore che, in caso di guasto, influirebbe negativamente sulle prestazioni o sulla capacità di manovra di un aereo. Sui velivoli ad elica, vi è un ....


04-10-2018
Aerosoft Dortmund XP

Scopri il centro della regione della Ruhr su XPlane 11 - lo scenario Dortmund XP è una ricostruzione completa della città di Dortmund per il simulatore di volo targato Laminar. Oltre all'intera area urbana di Dortmu ....


07-08-2018
Aerosoft Professional Flight Planner PFPX

PFPX - Professional Flight Planner X - è un nuovo ed innovativo strumento di pianificazione del volo sviluppato da piloti e dispatcher del mondo reale. È un'aggiunta preziosa e realistica alla tua esperienza di simulaz ....